South Freeport, Maine
Current Conditions -  °F | °C
As of 8:51 AM on Thursday 23 Oct 2014 (Local Time) from KPWM Reporting Station
Moderate Rain Moderate Rain  
Wind Chill: 51°   Ceiling: 1000
Heat Index: 51°   Visibility: 2mi
Dew Point: 47°   Wind: 23mph
Humidity: 86%   Direction: 30°NNE
Pressure: 29.77"   Gusts: 35mph
Location:  43.82°N, 70.11°W
Report Text: KPWM 231251Z 03020G30KT 2SM RA BR OVC010 11/08 A2977 RMK AO2 PK WND 03035/1237 RAB1159 SLP079 P0003 T01060083
Loading
Personal Weather Stations






























Interactive Weather Map
Tropical Storm Tracking
New forecast layout! Learn more

10-Day Weather Forecast

Advertisements
Track Severe Weather on mobile